sensor_id;sensor_type;location;lat;lon;timestamp;pressure;altitude;pressure_sealevel;temperature;humidity
57374;BME280;43964;53.890;25.340;2023-03-14T00:04:03;1007.1;;;7.4;74.2
57374;BME280;43964;53.890;25.340;2023-03-14T00:08:41;1007.1;;;7.4;74.2
57374;BME280;43964;53.890;25.340;2023-03-14T00:14:18;1007.1;;;7.4;74.1
57374;BME280;43964;53.890;25.340;2023-03-14T00:18:57;1007.1;;;7.4;73.9
57374;BME280;43964;53.890;25.340;2023-03-14T00:23:45;1007;;;7.4;74
57374;BME280;43964;53.890;25.340;2023-03-14T00:29:00;1007;;;7.4;74
57374;BME280;43964;53.890;25.340;2023-03-14T00:34:14;1006.9;;;7.4;73.9
57374;BME280;43964;53.890;25.340;2023-03-14T00:38:49;1006.8;;;7.4;73.6
57374;BME280;43964;53.890;25.340;2023-03-14T00:44:00;1006.7;;;7.3;73.8
57374;BME280;43964;53.890;25.340;2023-03-14T00:49:08;1006.7;;;7.4;73.8
57374;BME280;43964;53.890;25.340;2023-03-14T00:54:02;1006.8;;;7.4;73.7
57374;BME280;43964;53.890;25.340;2023-03-14T00:58:54;1006.8;;;7.4;73.7
57374;BME280;43964;53.890;25.340;2023-03-14T01:03:45;1006.7;;;7.4;73.6
57374;BME280;43964;53.890;25.340;2023-03-14T01:09:16;1006.5;;;7.5;73.5
57374;BME280;43964;53.890;25.340;2023-03-14T01:14:16;1006.4;;;7.5;73.4
57374;BME280;43964;53.890;25.340;2023-03-14T01:18:45;1006.4;;;7.5;73.3
57374;BME280;43964;53.890;25.340;2023-03-14T01:23:54;1006.4;;;7.6;73.3
57374;BME280;43964;53.890;25.340;2023-03-14T01:28:56;1006.3;;;7.6;73.2
57374;BME280;43964;53.890;25.340;2023-03-14T01:33:45;1006.3;;;7.7;73.1
57374;BME280;43964;53.890;25.340;2023-03-14T01:38:35;1006.3;;;7.7;73
57374;BME280;43964;53.890;25.340;2023-03-14T01:44:16;1006.3;;;7.7;72.9
57374;BME280;43964;53.890;25.340;2023-03-14T01:48:45;1006.3;;;7.7;72.8
57374;BME280;43964;53.890;25.340;2023-03-14T01:53:47;1006.4;;;7.7;72.7
57374;BME280;43964;53.890;25.340;2023-03-14T01:59:16;1006.3;;;7.7;72.8
57374;BME280;43964;53.890;25.340;2023-03-14T02:03:37;1006.4;;;7.7;72.7
57374;BME280;43964;53.890;25.340;2023-03-14T02:08:35;1006.4;;;7.6;72.7
57374;BME280;43964;53.890;25.340;2023-03-14T02:13:57;1006.5;;;7.7;72.7
57374;BME280;43964;53.890;25.340;2023-03-14T02:19:17;1006.5;;;7.7;72.6
57374;BME280;43964;53.890;25.340;2023-03-14T02:23:48;1006.4;;;7.7;72.6
57374;BME280;43964;53.890;25.340;2023-03-14T02:28:57;1006.4;;;7.7;72.5
57374;BME280;43964;53.890;25.340;2023-03-14T02:33:35;1006.4;;;7.8;72.4
57374;BME280;43964;53.890;25.340;2023-03-14T02:39:05;1006.4;;;7.8;72.2
57374;BME280;43964;53.890;25.340;2023-03-14T02:43:34;1006.2;;;7.8;72
57374;BME280;43964;53.890;25.340;2023-03-14T02:48:49;1006.2;;;7.8;71.9
57374;BME280;43964;53.890;25.340;2023-03-14T02:54:03;1006.2;;;7.8;71.8
57374;BME280;43964;53.890;25.340;2023-03-14T02:59:16;1006.1;;;7.8;71.5
57374;BME280;43964;53.890;25.340;2023-03-14T03:04:17;1006.1;;;7.8;71.4
57374;BME280;43964;53.890;25.340;2023-03-14T03:09:03;1006;;;7.7;71.2
57374;BME280;43964;53.890;25.340;2023-03-14T03:13:34;1006;;;7.7;71.1
57374;BME280;43964;53.890;25.340;2023-03-14T03:19:17;1006;;;7.7;70.9
57374;BME280;43964;53.890;25.340;2023-03-14T03:23:57;1006;;;7.7;70.8
57374;BME280;43964;53.890;25.340;2023-03-14T03:28:39;1006;;;7.8;70.5
57374;BME280;43964;53.890;25.340;2023-03-14T03:34:02;1006;;;7.8;70.3
57374;BME280;43964;53.890;25.340;2023-03-14T03:39:17;1005.9;;;7.6;70
57374;BME280;43964;53.890;25.340;2023-03-14T03:43:35;1005.8;;;7.5;70
57374;BME280;43964;53.890;25.340;2023-03-14T03:49:16;1005.6;;;7.5;69.6
57374;BME280;43964;53.890;25.340;2023-03-14T03:54:16;1005.4;;;7.4;69.4
57374;BME280;43964;53.890;25.340;2023-03-14T03:59:03;1005.5;;;7.5;69.3
57374;BME280;43964;53.890;25.340;2023-03-14T04:03:55;1005.7;;;7.4;68.9
57374;BME280;43964;53.890;25.340;2023-03-14T04:09:03;1005.6;;;7.4;68.6
57374;BME280;43964;53.890;25.340;2023-03-14T04:14:03;1005.8;;;7.4;68.4
57374;BME280;43964;53.890;25.340;2023-03-14T04:19:11;1005.7;;;7.4;68.5
57374;BME280;43964;53.890;25.340;2023-03-14T04:23:35;1005.5;;;7.5;68.1
57374;BME280;43964;53.890;25.340;2023-03-14T04:29:17;1005.5;;;7.4;67.4
57374;BME280;43964;53.890;25.340;2023-03-14T04:33:57;1005.5;;;7.4;67.4
57374;BME280;43964;53.890;25.340;2023-03-14T04:38:35;1005.5;;;7.3;67.4
57374;BME280;43964;53.890;25.340;2023-03-14T04:44:03;1005.4;;;7.2;67.2
57374;BME280;43964;53.890;25.340;2023-03-14T04:49:17;1005.3;;;7.2;67
57374;BME280;43964;53.890;25.340;2023-03-14T04:53:45;1005.3;;;7.2;66.8
57374;BME280;43964;53.890;25.340;2023-03-14T04:58:55;1005.3;;;7.3;66.5
57374;BME280;43964;53.890;25.340;2023-03-14T05:04:15;1005.4;;;7.3;66
57374;BME280;43964;53.890;25.340;2023-03-14T05:08:35;1005.5;;;7.3;65.5
57374;BME280;43964;53.890;25.340;2023-03-14T05:13:35;1005.5;;;7.3;65.3
57374;BME280;43964;53.890;25.340;2023-03-14T05:18:57;1005.4;;;7.4;65.2
57374;BME280;43964;53.890;25.340;2023-03-14T05:24:17;1005.4;;;7.4;65.2
57374;BME280;43964;53.890;25.340;2023-03-14T05:28:59;1005.5;;;7.4;65.2
57374;BME280;43964;53.890;25.340;2023-03-14T05:33:55;1005.4;;;7.4;65
57374;BME280;43964;53.890;25.340;2023-03-14T05:38:35;1005.3;;;7.5;64.7
57374;BME280;43964;53.890;25.340;2023-03-14T05:44:01;1005.5;;;7.7;64.2
57374;BME280;43964;53.890;25.340;2023-03-14T05:48:45;1005.6;;;7.8;63.8
57374;BME280;43964;53.890;25.340;2023-03-14T05:53:35;1005.5;;;8;63.3
57374;BME280;43964;53.890;25.340;2023-03-14T05:58:35;1005.5;;;8.2;62.9
57374;BME280;43964;53.890;25.340;2023-03-14T06:03:55;1005.6;;;8.3;62.8
57374;BME280;43964;53.890;25.340;2023-03-14T06:09:18;1005.7;;;8.4;62.7
57374;BME280;43964;53.890;25.340;2023-03-14T06:14:03;1005.9;;;8.4;62.7
57374;BME280;43964;53.890;25.340;2023-03-14T06:18:35;1005.9;;;8.3;62.6
57374;BME280;43964;53.890;25.340;2023-03-14T06:24:17;1005.9;;;8.2;62.5
57374;BME280;43964;53.890;25.340;2023-03-14T06:28:57;1005.8;;;8.1;62.4
57374;BME280;43964;53.890;25.340;2023-03-14T06:33:45;1005.7;;;8.1;61.9
57374;BME280;43964;53.890;25.340;2023-03-14T06:39:01;1005.7;;;8.2;61.6
57374;BME280;43964;53.890;25.340;2023-03-14T06:44:17;1005.5;;;8.2;61.3
57374;BME280;43964;53.890;25.340;2023-03-14T06:48:57;1005.5;;;8.3;61.2
57374;BME280;43964;53.890;25.340;2023-03-14T06:54:17;1005.5;;;8.4;61
57374;BME280;43964;53.890;25.340;2023-03-14T06:59:15;1005.4;;;8.5;61.1
57374;BME280;43964;53.890;25.340;2023-03-14T07:09:11;1005.5;;;8.7;60.4
57374;BME280;43964;53.890;25.340;2023-03-14T07:14:03;1005.5;;;8.9;60.4
57374;BME280;43964;53.890;25.340;2023-03-14T07:19:03;1005.6;;;9;60.3
57374;BME280;43964;53.890;25.340;2023-03-14T07:24:11;1005.6;;;9.1;60.1
57374;BME280;43964;53.890;25.340;2023-03-14T07:28:35;1005.5;;;9.2;59.5
57374;BME280;43964;53.890;25.340;2023-03-14T07:34:17;1005.4;;;9.3;58.9
57374;BME280;43964;53.890;25.340;2023-03-14T07:39:03;1005.4;;;9.6;58.4
57374;BME280;43964;53.890;25.340;2023-03-14T07:43:57;1005.4;;;9.9;57.6
57374;BME280;43964;53.890;25.340;2023-03-14T07:48:49;1005.3;;;10.2;57.2
57374;BME280;43964;53.890;25.340;2023-03-14T07:54:09;1005.1;;;10.4;57.2
57374;BME280;43964;53.890;25.340;2023-03-14T07:58:57;1005;;;10.7;57
57374;BME280;43964;53.890;25.340;2023-03-14T08:03:41;1005;;;11.1;56.4
57374;BME280;43964;53.890;25.340;2023-03-14T08:09:01;1004.9;;;11.5;55.8
57374;BME280;43964;53.890;25.340;2023-03-14T08:13:35;1004.9;;;11.7;55.2
57374;BME280;43964;53.890;25.340;2023-03-14T08:18:45;1005;;;12;54.9
57374;BME280;43964;53.890;25.340;2023-03-14T08:23:35;1005.1;;;12.1;54.4
57374;BME280;43964;53.890;25.340;2023-03-14T08:29:15;1005.1;;;12;54.1
57374;BME280;43964;53.890;25.340;2023-03-14T08:34:07;1005;;;12.1;53.7
57374;BME280;43964;53.890;25.340;2023-03-14T08:38:35;1005;;;11.9;52.8
57374;BME280;43964;53.890;25.340;2023-03-14T08:43:35;1004.9;;;11.5;53
57374;BME280;43964;53.890;25.340;2023-03-14T08:48:59;1004.9;;;11.1;53.1
57374;BME280;43964;53.890;25.340;2023-03-14T08:53:43;1004.9;;;11;53.2
57374;BME280;43964;53.890;25.340;2023-03-14T08:58:45;1004.8;;;11;53.3
57374;BME280;43964;53.890;25.340;2023-03-14T09:03:47;1004.7;;;11;53.4
57374;BME280;43964;53.890;25.340;2023-03-14T09:08:35;1004.7;;;11;53.3
57374;BME280;43964;53.890;25.340;2023-03-14T09:14:17;1004.8;;;11;53.3
57374;BME280;43964;53.890;25.340;2023-03-14T09:19:03;1004.8;;;11;52.8
57374;BME280;43964;53.890;25.340;2023-03-14T09:23:45;1004.7;;;11.3;52.3
57374;BME280;43964;53.890;25.340;2023-03-14T09:29:17;1004.7;;;11.5;52
57374;BME280;43964;53.890;25.340;2023-03-14T09:33:45;1004.7;;;11.9;51.4
57374;BME280;43964;53.890;25.340;2023-03-14T09:39:17;1004.7;;;12.4;50.8
57374;BME280;43964;53.890;25.340;2023-03-14T09:44:04;1004.9;;;12.9;50.4
57374;BME280;43964;53.890;25.340;2023-03-14T09:49:18;1005;;;13.2;50.3
57374;BME280;43964;53.890;25.340;2023-03-14T09:53:57;1005;;;13.4;50
57374;BME280;43964;53.890;25.340;2023-03-14T09:58:59;1005;;;13.6;49.9
57374;BME280;43964;53.890;25.340;2023-03-14T10:04:17;1004.8;;;13.7;49.5
57374;BME280;43964;53.890;25.340;2023-03-14T10:08:49;1004.7;;;13.7;49.2
57374;BME280;43964;53.890;25.340;2023-03-14T10:14:05;1004.7;;;13.6;48
57374;BME280;43964;53.890;25.340;2023-03-14T10:19:03;1004.8;;;13.6;47.3
57374;BME280;43964;53.890;25.340;2023-03-14T10:23:37;1004.6;;;13.8;47.5
57374;BME280;43964;53.890;25.340;2023-03-14T10:29:11;1004.5;;;13.9;47.3
57374;BME280;43964;53.890;25.340;2023-03-14T10:33:57;1004.6;;;14.1;47
57374;BME280;43964;53.890;25.340;2023-03-14T10:39:22;1004.5;;;14.1;46.3
57374;BME280;43964;53.890;25.340;2023-03-14T10:44:12;1004.5;;;14.2;46.7
57374;BME280;43964;53.890;25.340;2023-03-14T10:48:36;1004.4;;;14.3;46.9
57374;BME280;43964;53.890;25.340;2023-03-14T10:53:50;1004.2;;;14.3;46.7
57374;BME280;43964;53.890;25.340;2023-03-14T10:58:38;1004.2;;;14.2;46.2
57374;BME280;43964;53.890;25.340;2023-03-14T11:03:35;1004.2;;;14.2;46
57374;BME280;43964;53.890;25.340;2023-03-14T11:09:05;1004.1;;;14.2;45.8
57374;BME280;43964;53.890;25.340;2023-03-14T11:14:07;1003.9;;;14.1;44.8
57374;BME280;43964;53.890;25.340;2023-03-14T11:18:59;1003.8;;;14;45.2
57374;BME280;43964;53.890;25.340;2023-03-14T11:24:19;1003.8;;;14;45.2
57374;BME280;43964;53.890;25.340;2023-03-14T11:28:56;1003.8;;;14.3;45.3
57374;BME280;43964;53.890;25.340;2023-03-14T11:33:35;1003.7;;;14.5;45.3
57374;BME280;43964;53.890;25.340;2023-03-14T11:39:17;1003.5;;;14.8;45.2
57374;BME280;43964;53.890;25.340;2023-03-14T11:44:17;1003.4;;;14.8;44.9
57374;BME280;43964;53.890;25.340;2023-03-14T11:48:36;1003.4;;;14.8;44.5
57374;BME280;43964;53.890;25.340;2023-03-14T11:54:14;1003.2;;;14.9;43.8
57374;BME280;43964;53.890;25.340;2023-03-14T11:59:12;1003.1;;;15.1;43.4
57374;BME280;43964;53.890;25.340;2023-03-14T12:03:52;1003;;;15.4;43.6
57374;BME280;43964;53.890;25.340;2023-03-14T12:08:57;1002.9;;;15.7;43.2
57374;BME280;43964;53.890;25.340;2023-03-14T12:13:36;1002.8;;;15.9;42.5
57374;BME280;43964;53.890;25.340;2023-03-14T12:19:29;1002.7;;;15.9;42
57374;BME280;43964;53.890;25.340;2023-03-14T12:24:18;1002.7;;;16.1;42.3
57374;BME280;43964;53.890;25.340;2023-03-14T12:28:35;1002.6;;;16.4;42.2
57374;BME280;43964;53.890;25.340;2023-03-14T12:34:25;1002.5;;;16.2;41.5
57374;BME280;43964;53.890;25.340;2023-03-14T12:39:00;1002.3;;;15.8;41.8
57374;BME280;43964;53.890;25.340;2023-03-14T12:43:35;1002.1;;;15.8;41.4
57374;BME280;43964;53.890;25.340;2023-03-14T12:49:03;1002.1;;;15.9;41.2
57374;BME280;43964;53.890;25.340;2023-03-14T12:54:19;1002.2;;;15.9;41
57374;BME280;43964;53.890;25.340;2023-03-14T12:59:45;1002.2;;;15.9;41.1
57374;BME280;43964;53.890;25.340;2023-03-14T13:04:13;1002.1;;;16;41.1
57374;BME280;43964;53.890;25.340;2023-03-14T13:09:50;1002.1;;;16.2;41.2
57374;BME280;43964;53.890;25.340;2023-03-14T13:14:08;1002.1;;;16.4;41
57374;BME280;43964;53.890;25.340;2023-03-14T13:18:59;1001.9;;;16.4;40.8
57374;BME280;43964;53.890;25.340;2023-03-14T13:24:04;1001.9;;;16.3;40.6
57374;BME280;43964;53.890;25.340;2023-03-14T13:29:14;1001.9;;;16.3;40.9
57374;BME280;43964;53.890;25.340;2023-03-14T13:34:09;1001.9;;;16.4;40.9
57374;BME280;43964;53.890;25.340;2023-03-14T13:38:35;1001.9;;;16.2;40.9
57374;BME280;43964;53.890;25.340;2023-03-14T13:44:17;1001.9;;;16.1;40.8
57374;BME280;43964;53.890;25.340;2023-03-14T13:49:03;1001.8;;;16.2;40.9
57374;BME280;43964;53.890;25.340;2023-03-14T13:53:41;1001.8;;;16.3;40.9
57374;BME280;43964;53.890;25.340;2023-03-14T13:58:45;1001.7;;;16.3;40.8
57374;BME280;43964;53.890;25.340;2023-03-14T14:04:15;1001.6;;;16.3;40.9
57374;BME280;43964;53.890;25.340;2023-03-14T14:08:58;1001.6;;;16.3;41
57374;BME280;43964;53.890;25.340;2023-03-14T14:13:53;1001.5;;;16.3;41.1
57374;BME280;43964;53.890;25.340;2023-03-14T14:19:05;1001.5;;;16.4;41.1
57374;BME280;43964;53.890;25.340;2023-03-14T14:23:45;1001.5;;;16.4;41.1
57374;BME280;43964;53.890;25.340;2023-03-14T14:29:24;1001.5;;;16.4;40.8
57374;BME280;43964;53.890;25.340;2023-03-14T14:34:00;1001.5;;;16.2;41
57374;BME280;43964;53.890;25.340;2023-03-14T14:38:50;1001.6;;;16.1;41
57374;BME280;43964;53.890;25.340;2023-03-14T14:44:11;1001.6;;;16;41.1
57374;BME280;43964;53.890;25.340;2023-03-14T14:49:19;1001.6;;;15.9;41.3
57374;BME280;43964;53.890;25.340;2023-03-14T14:53:49;1001.6;;;15.7;41.5
57374;BME280;43964;53.890;25.340;2023-03-14T14:59:01;1001.6;;;15.7;41.6
57374;BME280;43964;53.890;25.340;2023-03-14T15:03:59;1001.5;;;15.7;41.7
57374;BME280;43964;53.890;25.340;2023-03-14T15:09:05;1001.5;;;15.5;41.8
57374;BME280;43964;53.890;25.340;2023-03-14T15:13:57;1001.6;;;15.4;42.1
57374;BME280;43964;53.890;25.340;2023-03-14T15:18:35;1001.6;;;15.3;42.2
57374;BME280;43964;53.890;25.340;2023-03-14T15:24:19;1001.5;;;15.2;42.3
57374;BME280;43964;53.890;25.340;2023-03-14T15:29:19;1001.5;;;15;42.5
57374;BME280;43964;53.890;25.340;2023-03-14T15:33:35;1001.4;;;14.8;42.8
57374;BME280;43964;53.890;25.340;2023-03-14T15:39:17;1001.5;;;14.7;43
57374;BME280;43964;53.890;25.340;2023-03-14T15:44:05;1001.5;;;14.7;43
57374;BME280;43964;53.890;25.340;2023-03-14T15:48:45;1001.4;;;14.7;43.1
57374;BME280;43964;53.890;25.340;2023-03-14T15:53:49;1001.4;;;14.7;43.2
57374;BME280;43964;53.890;25.340;2023-03-14T15:59:19;1001.4;;;14.7;43.2
57374;BME280;43964;53.890;25.340;2023-03-14T16:03:59;1001.4;;;14.7;43.3
57374;BME280;43964;53.890;25.340;2023-03-14T16:08:51;1001.5;;;14.6;43.4
57374;BME280;43964;53.890;25.340;2023-03-14T16:14:19;1001.6;;;14.5;43.5
57374;BME280;43964;53.890;25.340;2023-03-14T16:18:45;1001.6;;;14.4;43.7
57374;BME280;43964;53.890;25.340;2023-03-14T16:23:57;1001.6;;;14.4;43.9
57374;BME280;43964;53.890;25.340;2023-03-14T16:28:46;1001.7;;;14.4;44
57374;BME280;43964;53.890;25.340;2023-03-14T16:34:02;1001.8;;;14.3;44.1
57374;BME280;43964;53.890;25.340;2023-03-14T16:39:13;1001.8;;;14.3;44.4
57374;BME280;43964;53.890;25.340;2023-03-14T16:43:35;1001.9;;;14.2;44.6
57374;BME280;43964;53.890;25.340;2023-03-14T16:49:21;1001.9;;;14.1;44.8
57374;BME280;43964;53.890;25.340;2023-03-14T16:54:05;1001.9;;;14.1;45
57374;BME280;43964;53.890;25.340;2023-03-14T16:58:45;1001.8;;;14.1;45
57374;BME280;43964;53.890;25.340;2023-03-14T17:03:51;1001.8;;;14.1;45
57374;BME280;43964;53.890;25.340;2023-03-14T17:09:13;1001.9;;;14.1;45.1
57374;BME280;43964;53.890;25.340;2023-03-14T17:13:35;1001.9;;;14.1;45.2
57374;BME280;43964;53.890;25.340;2023-03-14T17:19:07;1002;;;14.1;45.2
57374;BME280;43964;53.890;25.340;2023-03-14T17:23:59;1002;;;14;45.3
57374;BME280;43964;53.890;25.340;2023-03-14T17:28:35;1002;;;14;45.4
57374;BME280;43964;53.890;25.340;2023-03-14T17:34:21;1002;;;14;45.5
57374;BME280;43964;53.890;25.340;2023-03-14T17:38:45;1002;;;14.1;45.6
57374;BME280;43964;53.890;25.340;2023-03-14T17:43:59;1002.1;;;14;45.7
57374;BME280;43964;53.890;25.340;2023-03-14T17:49:13;1002.1;;;14;45.8
57374;BME280;43964;53.890;25.340;2023-03-14T17:54:21;1002.1;;;13.9;45.9
57374;BME280;43964;53.890;25.340;2023-03-14T17:58:45;1002.1;;;13.9;46
57374;BME280;43964;53.890;25.340;2023-03-14T18:04:03;1002.1;;;13.9;46
57374;BME280;43964;53.890;25.340;2023-03-14T18:09:11;1002;;;13.9;46
57374;BME280;43964;53.890;25.340;2023-03-14T18:14:07;1001.9;;;13.8;46.1
57374;BME280;43964;53.890;25.340;2023-03-14T18:18:57;1001.9;;;13.7;46.2
57374;BME280;43964;53.890;25.340;2023-03-14T18:23:35;1002;;;13.6;46.3
57374;BME280;43964;53.890;25.340;2023-03-14T18:29:19;1002;;;13.6;46.4
57374;BME280;43964;53.890;25.340;2023-03-14T18:33:55;1002.1;;;13.5;46.7
57374;BME280;43964;53.890;25.340;2023-03-14T18:39:03;1002.1;;;13.4;46.9
57374;BME280;43964;53.890;25.340;2023-03-14T18:44:19;1002.2;;;13.4;47
57374;BME280;43964;53.890;25.340;2023-03-14T18:48:57;1002.3;;;13.4;47.2
57374;BME280;43964;53.890;25.340;2023-03-14T18:53:44;1002.4;;;13.3;47.4
57374;BME280;43964;53.890;25.340;2023-03-14T18:58:49;1002.4;;;13.3;47.5
57374;BME280;43964;53.890;25.340;2023-03-14T19:04:19;1002.5;;;13.3;47.6
57374;BME280;43964;53.890;25.340;2023-03-14T19:08:43;1002.5;;;13.2;47.7
57374;BME280;43964;53.890;25.340;2023-03-14T19:13:43;1002.6;;;13.2;47.7
57374;BME280;43964;53.890;25.340;2023-03-14T19:19:19;1002.7;;;13.2;47.9
57374;BME280;43964;53.890;25.340;2023-03-14T19:23:36;1002.7;;;13.1;48
57374;BME280;43964;53.890;25.340;2023-03-14T19:28:43;1002.8;;;13.1;48.1
57374;BME280;43964;53.890;25.340;2023-03-14T19:33:35;1002.8;;;13.1;48.5
57374;BME280;43964;53.890;25.340;2023-03-14T19:39:19;1002.8;;;13.1;48.7
57374;BME280;43964;53.890;25.340;2023-03-14T19:43:47;1002.9;;;13.1;48.9
57374;BME280;43964;53.890;25.340;2023-03-14T19:48:57;1003;;;13.1;49.1
57374;BME280;43964;53.890;25.340;2023-03-14T19:53:49;1002.9;;;13;49.3
57374;BME280;43964;53.890;25.340;2023-03-14T19:59:03;1002.9;;;13;49.4
57374;BME280;43964;53.890;25.340;2023-03-14T20:03:43;1003;;;13;49.4
57374;BME280;43964;53.890;25.340;2023-03-14T20:08:49;1002.9;;;13;49.6
57374;BME280;43964;53.890;25.340;2023-03-14T20:13:53;1003;;;12.9;49.8
57374;BME280;43964;53.890;25.340;2023-03-14T20:18:43;1003;;;12.9;50
57374;BME280;43964;53.890;25.340;2023-03-14T20:24:19;1003.1;;;12.8;50.1
57374;BME280;43964;53.890;25.340;2023-03-14T20:29:05;1003.1;;;12.8;50.5
57374;BME280;43964;53.890;25.340;2023-03-14T20:34:05;1003.1;;;12.8;50.7
57374;BME280;43964;53.890;25.340;2023-03-14T20:39:19;1003.2;;;12.8;50.7
57374;BME280;43964;53.890;25.340;2023-03-14T20:43:57;1003.1;;;12.8;50.8
57374;BME280;43964;53.890;25.340;2023-03-14T20:48:35;1003.1;;;12.8;50.9
57374;BME280;43964;53.890;25.340;2023-03-14T20:54:11;1003.2;;;12.8;51.1
57374;BME280;43964;53.890;25.340;2023-03-14T20:59:19;1003.3;;;12.7;51.5
57374;BME280;43964;53.890;25.340;2023-03-14T21:04:03;1003.2;;;12.7;51.8
57374;BME280;43964;53.890;25.340;2023-03-14T21:09:03;1003.2;;;12.6;52
57374;BME280;43964;53.890;25.340;2023-03-14T21:14:11;1003.2;;;12.5;52.1
57374;BME280;43964;53.890;25.340;2023-03-14T21:19:05;1003.3;;;12.4;52.2
57374;BME280;43964;53.890;25.340;2023-03-14T21:23:53;1003.3;;;12.3;52.8
57374;BME280;43964;53.890;25.340;2023-03-14T21:29:17;1003.3;;;12.3;53.4
57374;BME280;43964;53.890;25.340;2023-03-14T21:33:55;1003.3;;;12.2;53.8
57374;BME280;43964;53.890;25.340;2023-03-14T21:39:19;1003.4;;;12.2;54.2
57374;BME280;43964;53.890;25.340;2023-03-14T21:43:43;1003.5;;;12.1;54.7
57374;BME280;43964;53.890;25.340;2023-03-14T21:49:19;1003.6;;;12;54.9
57374;BME280;43964;53.890;25.340;2023-03-14T21:53:57;1003.5;;;11.9;55
57374;BME280;43964;53.890;25.340;2023-03-14T21:58:49;1003.6;;;11.9;55.1
57374;BME280;43964;53.890;25.340;2023-03-14T22:03:43;1003.6;;;11.8;55.4
57374;BME280;43964;53.890;25.340;2023-03-14T22:09:19;1003.6;;;11.8;55.7
57374;BME280;43964;53.890;25.340;2023-03-14T22:13:43;1003.6;;;11.7;55.9
57374;BME280;43964;53.890;25.340;2023-03-14T22:18:55;1003.6;;;11.7;56.9
57374;BME280;43964;53.890;25.340;2023-03-14T22:24:19;1003.6;;;11.7;57.3
57374;BME280;43964;53.890;25.340;2023-03-14T22:28:43;1003.7;;;11.6;57.9
57374;BME280;43964;53.890;25.340;2023-03-14T22:33:51;1003.7;;;11.5;58.4
57374;BME280;43964;53.890;25.340;2023-03-14T22:38:35;1003.6;;;11.5;58.7
57374;BME280;43964;53.890;25.340;2023-03-14T22:44:19;1003.7;;;11.6;58.6
57374;BME280;43964;53.890;25.340;2023-03-14T22:49:19;1003.8;;;11.6;58.5
57374;BME280;43964;53.890;25.340;2023-03-14T22:53:57;1003.8;;;11.7;58.4
57374;BME280;43964;53.890;25.340;2023-03-14T22:58:49;1003.9;;;11.7;58.4
57374;BME280;43964;53.890;25.340;2023-03-14T23:04:01;1004;;;11.7;58.5
57374;BME280;43964;53.890;25.340;2023-03-14T23:08:35;1004;;;11.7;58.5
57374;BME280;43964;53.890;25.340;2023-03-14T23:13:49;1003.9;;;11.7;58.8
57374;BME280;43964;53.890;25.340;2023-03-14T23:18:59;1003.9;;;11.7;59.2
57374;BME280;43964;53.890;25.340;2023-03-14T23:23:55;1003.8;;;11.7;59.5
57374;BME280;43964;53.890;25.340;2023-03-14T23:29:19;1003.9;;;11.7;59.6
57374;BME280;43964;53.890;25.340;2023-03-14T23:34:05;1003.9;;;11.7;59.7
57374;BME280;43964;53.890;25.340;2023-03-14T23:38:49;1003.9;;;11.7;59.7
57374;BME280;43964;53.890;25.340;2023-03-14T23:44:19;1004;;;11.6;59.6
57374;BME280;43964;53.890;25.340;2023-03-14T23:48:57;1004;;;11.5;59.6
57374;BME280;43964;53.890;25.340;2023-03-14T23:53:43;1004.1;;;11.4;59.7
57374;BME280;43964;53.890;25.340;2023-03-14T23:59:03;1004.2;;;11.2;59.8
